Terminal Aerodrome Forecast
Issued by NWS Memphis, TN

Home | Current Version | Previous Version | Text Only | Print | Product List | Glossary On
Versions: 1 2 3 4 5 6 7 8 9 10 11 12 13 14 15 16 17
127
FTUS44 KMEG 050313 AAB
TAFMKL
TAF AMD
KMKL 050313Z 0503/0524 31005KT P6SM SCT008 OVC015
     FM050600 36004KT 4SM BR OVC007
     FM051500 07006KT P6SM OVC007
     FM051800 07007KT P6SM OVC012
     FM052300 07007KT 5SM -RA BR OVC009=

USA.gov is the U.S. government's official web portal to all federal, state and local government web resources and services.